createdAt,value
2019-02-24T00:01:28.816Z,98882.49
2019-02-24T00:03:58.440Z,98878.02
2019-02-24T00:06:28.152Z,98879.02
2019-02-24T00:08:57.748Z,98884.02
2019-02-24T00:11:27.347Z,98885.67
2019-02-24T00:13:56.977Z,98890.86
2019-02-24T00:16:26.572Z,98888.89
2019-02-24T00:18:56.197Z,98889.20
2019-02-24T00:21:25.794Z,98892.56
2019-02-24T00:23:55.424Z,98895.92
2019-02-24T00:26:25.092Z,98891.41
2019-02-24T00:28:54.700Z,98885.92
2019-02-24T00:31:24.327Z,98890.94
2019-02-24T00:33:53.919Z,98885.10
2019-02-24T00:36:23.550Z,98886.14
2019-02-24T00:38:53.222Z,98890.55
2019-02-24T00:41:22.854Z,98886.63
2019-02-24T00:43:52.446Z,98892.00
2019-02-24T00:46:22.065Z,98883.34
2019-02-24T00:48:51.740Z,98877.05
2019-02-24T00:51:21.368Z,98879.80
2019-02-24T00:53:50.969Z,98881.11
2019-02-24T00:56:20.595Z,98878.78
2019-02-24T00:58:50.191Z,98884.41
2019-02-24T01:01:19.896Z,98889.53
2019-02-24T01:03:49.493Z,98896.07
2019-02-24T01:06:19.900Z,98890.27
2019-02-24T01:08:49.521Z,98891.31
2019-02-24T01:11:19.145Z,98889.55
2019-02-24T01:13:48.772Z,98880.09
2019-02-24T01:16:18.401Z,98894.09
2019-02-24T01:18:47.998Z,98888.09
2019-02-24T01:21:17.598Z,98884.05
2019-02-24T01:23:47.233Z,98889.09
2019-02-24T01:26:16.985Z,98889.73
2019-02-24T01:28:46.582Z,98896.69
2019-02-24T01:31:16.200Z,98887.94
2019-02-24T01:33:45.822Z,98895.63
2019-02-24T01:36:15.419Z,98905.27
2019-02-24T01:38:45.051Z,98906.98
2019-02-24T01:41:14.655Z,98899.55
2019-02-24T01:43:44.288Z,98908.11
2019-02-24T01:46:13.880Z,98909.33
2019-02-24T01:48:43.508Z,98908.56
2019-02-24T01:51:13.105Z,98901.95
2019-02-24T01:53:42.723Z,98898.38
2019-02-24T01:56:12.351Z,98897.98
2019-02-24T01:58:41.953Z,98904.43
2019-02-24T02:01:11.638Z,98899.45
2019-02-24T02:03:41.280Z,98900.12
2019-02-24T02:06:10.882Z,98911.06
2019-02-24T02:08:40.481Z,98910.27
2019-02-24T02:11:10.167Z,98912.88
2019-02-24T02:13:39.792Z,98908.20
2019-02-24T02:16:09.416Z,98905.81
2019-02-24T02:18:39.024Z,98913.62
2019-02-24T02:21:08.675Z,98922.09
2019-02-24T02:23:38.272Z,98926.01
2019-02-24T02:26:07.870Z,98919.42
2019-02-24T02:28:43.770Z,98916.66
2019-02-24T02:31:08.824Z,98914.62
2019-02-24T02:33:38.455Z,98902.06
2019-02-24T02:36:08.320Z,98903.43
2019-02-24T02:38:37.919Z,98909.09
2019-02-24T02:41:07.544Z,98911.47
2019-02-24T02:43:37.170Z,98906.75
2019-02-24T02:46:06.783Z,98910.99
2019-02-24T02:48:36.775Z,98909.77
2019-02-24T02:51:06.401Z,98902.73
2019-02-24T02:53:36.019Z,98908.95
2019-02-24T02:56:05.645Z,98914.59
2019-02-24T02:58:35.275Z,98917.08
2019-02-24T03:01:05.008Z,98913.33
2019-02-24T03:03:34.632Z,98909.63
2019-02-24T03:06:11.854Z,98899.94
2019-02-24T03:08:48.552Z,98901.02
2019-02-24T03:11:18.588Z,98894.32
2019-02-24T03:13:48.358Z,98877.17
2019-02-24T03:16:19.659Z,98886.53
2019-02-24T03:18:49.297Z,98882.00
2019-02-24T03:21:18.973Z,98883.86
2019-02-24T03:23:48.585Z,98882.86
2019-02-24T03:26:18.257Z,98878.11
2019-02-24T03:28:47.884Z,98865.38
2019-02-24T03:31:17.481Z,98867.30
2019-02-24T03:33:47.119Z,98865.47
2019-02-24T03:36:16.707Z,98867.59
2019-02-24T03:38:46.344Z,98860.63
2019-02-24T03:41:15.949Z,98863.60
2019-02-24T03:43:45.628Z,98862.58
2019-02-24T03:46:15.254Z,98865.64
2019-02-24T03:48:44.883Z,98868.38
2019-02-24T03:51:14.504Z,98870.27
2019-02-24T03:53:44.273Z,98870.14
2019-02-24T03:56:13.903Z,98870.30
2019-02-24T03:58:43.640Z,98873.39
2019-02-24T04:01:13.335Z,98871.53
2019-02-24T04:03:43.000Z,98869.92
2019-02-24T04:06:12.630Z,98869.21
2019-02-24T04:08:42.262Z,98868.72
2019-02-24T04:11:12.037Z,98869.41
2019-02-24T04:13:41.639Z,98859.16
2019-02-24T04:16:11.239Z,98859.25
2019-02-24T04:18:40.867Z,98868.59
2019-02-24T04:21:10.492Z,98868.22
2019-02-24T04:23:40.090Z,98866.06
2019-02-24T04:26:09.720Z,98857.95
2019-02-24T04:28:39.349Z,98856.00
2019-02-24T04:31:08.947Z,98854.92
2019-02-24T04:33:38.598Z,98859.34
2019-02-24T04:36:08.169Z,98861.10
2019-02-24T04:38:38.136Z,98868.88
2019-02-24T04:41:07.738Z,98859.11
2019-02-24T04:43:37.362Z,98864.93
2019-02-24T04:46:06.988Z,98864.98
2019-02-24T04:48:36.621Z,98857.05
2019-02-24T04:51:06.231Z,98862.10
2019-02-24T04:53:35.858Z,98869.72
2019-02-24T04:56:05.480Z,98876.47
2019-02-24T04:58:35.080Z,98877.20
2019-02-24T05:01:04.777Z,98888.05
2019-02-24T05:03:34.401Z,98888.92
2019-02-24T05:06:04.091Z,98891.41
2019-02-24T05:08:33.713Z,98889.80
2019-02-24T05:11:03.312Z,98881.41
2019-02-24T05:13:32.951Z,98879.80
2019-02-24T05:16:02.567Z,98881.30
2019-02-24T05:18:32.189Z,98887.96
2019-02-24T05:21:01.818Z,98880.11
2019-02-24T05:23:31.412Z,98878.83
2019-02-24T05:26:01.326Z,98876.70
2019-02-24T05:28:30.921Z,98885.00
2019-02-24T05:31:00.519Z,98881.84
2019-02-24T05:33:30.142Z,98887.50
2019-02-24T05:35:59.765Z,98893.28
2019-02-24T05:38:29.463Z,98895.28
2019-02-24T05:40:59.092Z,98888.77
2019-02-24T05:43:28.688Z,98891.62
2019-02-24T05:45:58.370Z,98883.01
2019-02-24T05:48:27.967Z,98887.92
2019-02-24T05:50:57.592Z,98884.45
2019-02-24T05:53:27.196Z,98877.06
2019-02-24T05:55:56.808Z,98880.58
2019-02-24T05:58:26.410Z,98878.47
2019-02-24T06:00:56.048Z,98879.09
2019-02-24T06:03:25.651Z,98873.15
2019-02-24T06:05:55.244Z,98877.60
2019-02-24T06:08:24.862Z,98872.50
2019-02-24T06:10:54.506Z,98880.43
2019-02-24T06:13:24.107Z,98883.19
2019-02-24T06:15:53.714Z,98878.68
2019-02-24T06:18:23.345Z,98871.22
2019-02-24T06:20:52.944Z,98861.90
2019-02-24T06:23:22.591Z,98856.06
2019-02-24T06:25:52.194Z,98860.81
2019-02-24T06:28:21.791Z,98855.00
2019-02-24T06:30:51.424Z,98859.45
2019-02-24T06:33:21.024Z,98842.10
2019-02-24T06:35:50.655Z,98838.66
2019-02-24T06:38:20.261Z,98828.92
2019-02-24T06:40:49.945Z,98826.64
2019-02-24T06:43:19.571Z,98826.80
2019-02-24T06:45:49.175Z,98828.11
2019-02-24T06:48:18.814Z,98828.28
2019-02-24T06:50:50.053Z,98830.45
2019-02-24T06:53:19.901Z,98832.08
2019-02-24T06:55:49.530Z,98837.48
2019-02-24T06:58:19.132Z,98839.69
2019-02-24T07:00:48.726Z,98829.04
2019-02-24T07:03:18.350Z,98828.85
2019-02-24T07:05:47.957Z,98819.83
2019-02-24T07:08:17.587Z,98812.81
2019-02-24T07:10:47.253Z,98803.81
2019-02-24T07:13:16.885Z,98798.34
2019-02-24T07:15:46.484Z,98799.02
2019-02-24T07:18:16.108Z,98790.69
2019-02-24T07:20:45.705Z,98782.13
2019-02-24T07:23:15.333Z,98782.11
2019-02-24T07:25:44.934Z,98776.56
2019-02-24T07:28:14.556Z,98772.19
2019-02-24T07:30:44.158Z,98767.02
2019-02-24T07:33:13.792Z,98759.70
2019-02-24T07:35:43.390Z,98760.45
2019-02-24T07:38:12.986Z,98749.16
2019-02-24T07:40:42.608Z,98744.48
2019-02-24T07:43:12.228Z,98733.53
2019-02-24T07:45:41.829Z,98726.72
2019-02-24T07:48:11.465Z,98738.33
2019-02-24T07:50:41.083Z,98753.13
2019-02-24T07:53:10.713Z,98754.52
2019-02-24T07:55:40.338Z,98746.34
2019-02-24T07:58:09.938Z,98749.57
2019-02-24T08:00:39.573Z,98750.58
2019-02-24T08:03:09.179Z,98753.25
2019-02-24T08:05:38.778Z,98747.73
2019-02-24T08:08:16.177Z,98754.98
2019-02-24T08:10:39.753Z,98757.25
2019-02-24T08:13:09.383Z,98760.41
2019-02-24T08:15:38.977Z,98774.40
2019-02-24T08:18:08.592Z,98776.70
2019-02-24T08:20:38.250Z,98764.95
2019-02-24T08:23:07.914Z,98773.70
2019-02-24T08:25:37.521Z,98778.45
2019-02-24T08:28:07.103Z,98777.60
2019-02-24T08:30:41.510Z,98782.52
2019-02-24T08:33:08.053Z,98798.58
2019-02-24T08:35:37.640Z,98796.70
2019-02-24T08:38:07.339Z,98805.16
2019-02-24T08:40:36.962Z,98816.02
2019-02-24T08:43:06.652Z,98828.08
2019-02-24T08:45:36.241Z,98822.40
2019-02-24T08:48:05.898Z,98823.99
2019-02-24T08:50:36.096Z,98821.98
2019-02-24T08:53:05.786Z,98838.30
2019-02-24T08:55:35.383Z,98831.22
2019-02-24T08:58:05.003Z,98826.77
2019-02-24T09:00:34.598Z,98826.77
2019-02-24T09:03:04.214Z,98824.78
2019-02-24T09:05:33.803Z,98830.50
2019-02-24T09:08:03.420Z,98820.28
2019-02-24T09:10:33.015Z,98809.20
2019-02-24T09:13:02.636Z,98812.55
2019-02-24T09:15:32.220Z,98807.34
2019-02-24T09:18:02.410Z,98809.49
2019-02-24T09:20:32.166Z,98813.42
2019-02-24T09:23:02.036Z,98804.80
2019-02-24T09:25:31.693Z,98795.39
2019-02-24T09:28:01.322Z,98793.64
2019-02-24T09:30:30.934Z,98800.20
2019-02-24T09:33:00.547Z,98802.14
2019-02-24T09:35:30.160Z,98814.16
2019-02-24T09:37:59.755Z,98819.87
2019-02-24T09:40:29.440Z,98814.09
2019-02-24T09:42:59.143Z,98817.65
2019-02-24T09:45:28.754Z,98816.77
2019-02-24T09:47:58.336Z,98805.63
2019-02-24T09:50:27.964Z,98799.13
2019-02-24T09:52:57.552Z,98800.23
2019-02-24T09:55:27.144Z,98790.08
2019-02-24T09:57:56.769Z,98793.62
2019-02-24T10:00:27.021Z,98795.36
2019-02-24T10:02:57.599Z,98802.13
2019-02-24T10:05:28.202Z,98806.78
2019-02-24T10:07:57.787Z,98810.30
2019-02-24T10:10:27.410Z,98804.70
2019-02-24T10:12:57.028Z,98798.67
2019-02-24T10:15:26.635Z,98794.63
2019-02-24T10:17:56.255Z,98786.73
2019-02-24T10:20:25.913Z,98772.30
2019-02-24T10:22:55.538Z,98774.68
2019-02-24T10:25:25.126Z,98775.14
2019-02-24T10:27:54.757Z,98769.46
2019-02-24T10:30:24.420Z,98769.92
2019-02-24T10:32:54.084Z,98778.31
2019-02-24T10:35:23.703Z,98782.19
2019-02-24T10:37:53.297Z,98782.41
2019-02-24T10:40:23.389Z,98791.75
2019-02-24T10:42:52.985Z,98799.77
2019-02-24T10:45:22.679Z,98797.89
2019-02-24T10:47:52.935Z,98813.92
2019-02-24T10:50:22.539Z,98804.97
2019-02-24T10:52:52.149Z,98813.00
2019-02-24T10:55:21.737Z,98811.55
2019-02-24T10:57:51.362Z,98815.44
2019-02-24T11:00:22.802Z,98811.11
2019-02-24T11:02:52.425Z,98813.76
2019-02-24T11:05:24.024Z,98818.55
2019-02-24T11:07:53.642Z,98820.66
2019-02-24T11:10:23.303Z,98813.76
2019-02-24T11:12:52.920Z,98813.59
2019-02-24T11:15:22.530Z,98810.45
2019-02-24T11:17:52.121Z,98808.02
2019-02-24T11:20:21.742Z,98805.27
2019-02-24T11:22:51.428Z,98805.05
2019-02-24T11:25:21.022Z,98803.38
2019-02-24T11:27:50.643Z,98794.58
2019-02-24T11:30:20.471Z,98783.02
2019-02-24T11:32:50.096Z,98786.98
2019-02-24T11:35:19.754Z,98777.06
2019-02-24T11:37:49.641Z,98774.26
2019-02-24T11:40:19.938Z,98763.86
2019-02-24T11:42:49.551Z,98764.88
2019-02-24T11:45:19.207Z,98758.67
2019-02-24T11:47:48.817Z,98760.41
2019-02-24T11:50:18.516Z,98756.92
2019-02-24T11:52:48.110Z,98757.47
2019-02-24T11:55:17.749Z,98742.08
2019-02-24T11:57:47.325Z,98741.16
2019-02-24T12:00:17.286Z,98743.56
2019-02-24T12:02:46.940Z,98742.41
2019-02-24T12:05:16.553Z,98742.38
2019-02-24T12:07:46.148Z,98736.67
2019-02-24T12:10:15.777Z,98727.06
2019-02-24T12:12:45.366Z,98719.98
2019-02-24T12:15:16.330Z,98712.39
2019-02-24T12:17:46.054Z,98702.69
2019-02-24T12:20:16.061Z,98696.16
2019-02-24T12:22:45.652Z,98691.73
2019-02-24T12:25:15.808Z,98688.00
2019-02-24T12:27:45.499Z,98687.34
2019-02-24T12:30:17.226Z,98687.22
2019-02-24T12:32:48.338Z,98679.05
2019-02-24T12:35:17.920Z,98683.22
2019-02-24T12:37:47.516Z,98686.20
2019-02-24T12:40:17.596Z,98680.85
2019-02-24T12:42:47.219Z,98684.56
2019-02-24T12:45:16.808Z,98672.02
2019-02-24T12:47:46.426Z,98674.52
2019-02-24T12:50:18.517Z,98676.95
2019-02-24T12:52:48.403Z,98672.97
2019-02-24T12:55:18.027Z,98661.60
2019-02-24T12:57:47.943Z,98655.59
2019-02-24T13:00:28.871Z,98644.78
2019-02-24T13:02:58.521Z,98649.66
2019-02-24T13:05:28.145Z,98651.25
2019-02-24T13:07:57.760Z,98642.73
2019-02-24T13:10:27.349Z,98630.33
2019-02-24T13:12:57.036Z,98634.41
2019-02-24T13:15:26.703Z,98625.94
2019-02-24T13:17:56.310Z,98629.17
2019-02-24T13:20:25.993Z,98628.30
2019-02-24T13:22:55.577Z,98612.34
2019-02-24T13:25:25.280Z,98603.31
2019-02-24T13:27:54.870Z,98605.25
2019-02-24T13:30:24.604Z,98600.26
2019-02-24T13:32:54.237Z,98590.41
2019-02-24T13:35:23.818Z,98586.91
2019-02-24T13:37:53.409Z,98587.33
2019-02-24T13:40:23.944Z,98582.85
2019-02-24T13:42:53.535Z,98577.82
2019-02-24T13:45:23.869Z,98576.08
2019-02-24T13:47:53.486Z,98576.33
2019-02-24T13:50:23.212Z,98570.72
2019-02-24T13:52:52.834Z,98574.87
2019-02-24T13:55:22.587Z,98575.64
2019-02-24T13:57:52.183Z,98551.89
2019-02-24T14:00:22.920Z,98550.57
2019-02-24T14:02:52.508Z,98547.45
2019-02-24T14:05:22.232Z,98544.55
2019-02-24T14:07:51.851Z,98543.35
2019-02-24T14:10:21.583Z,98538.00
2019-02-24T14:12:51.199Z,98551.17
2019-02-24T14:15:21.422Z,98551.65
2019-02-24T14:17:51.042Z,98548.16
2019-02-24T14:20:20.907Z,98555.31
2019-02-24T14:22:50.528Z,98550.12
2019-02-24T14:25:20.185Z,98554.27
2019-02-24T14:27:49.807Z,98558.41
2019-02-24T14:30:20.732Z,98556.61
2019-02-24T14:32:50.321Z,98554.94
2019-02-24T14:35:24.759Z,98558.55
2019-02-24T14:37:54.489Z,98555.66
2019-02-24T14:40:24.113Z,98561.12
2019-02-24T14:42:53.733Z,98558.31
2019-02-24T14:45:24.964Z,98563.21
2019-02-24T14:47:54.632Z,98566.33
2019-02-24T14:50:24.245Z,98572.79
2019-02-24T14:52:53.840Z,98572.56
2019-02-24T14:55:23.522Z,98572.69
2019-02-24T14:57:53.151Z,98567.85
2019-02-24T15:00:24.826Z,98578.30
2019-02-24T15:02:54.486Z,98568.47
2019-02-24T15:05:24.138Z,98570.45
2019-02-24T15:07:54.048Z,98563.75
2019-02-24T15:10:25.270Z,98566.47
2019-02-24T15:12:54.896Z,98571.48
2019-02-24T15:15:33.735Z,98573.16
2019-02-24T15:18:03.422Z,98577.34
2019-02-24T15:20:33.084Z,98580.48
2019-02-24T15:23:03.593Z,98582.77
2019-02-24T15:25:33.176Z,98583.09
2019-02-24T15:28:02.801Z,98591.55
2019-02-24T15:30:38.894Z,98598.13
2019-02-24T15:33:08.837Z,98602.09
2019-02-24T15:35:38.782Z,98595.40
2019-02-24T15:38:08.543Z,98597.60
2019-02-24T15:40:38.131Z,98594.56
2019-02-24T15:43:07.918Z,98600.55
2019-02-24T15:45:37.484Z,98604.63
2019-02-24T15:48:07.186Z,98605.32
2019-02-24T15:50:36.779Z,98599.55
2019-02-24T15:53:06.467Z,98601.70
2019-02-24T15:55:36.056Z,98614.28
2019-02-24T15:58:05.939Z,98615.75
2019-02-24T16:00:36.464Z,98605.65
2019-02-24T16:03:06.143Z,98608.83
2019-02-24T16:05:35.759Z,98609.72
2019-02-24T16:08:05.350Z,98619.89
2019-02-24T16:10:35.302Z,98624.03
2019-02-24T16:13:04.981Z,98634.52
2019-02-24T16:15:34.577Z,98634.28
2019-02-24T16:18:04.263Z,98638.63
2019-02-24T16:20:37.202Z,98641.67
2019-02-24T16:23:07.769Z,98644.84
2019-02-24T16:25:37.390Z,98634.71
2019-02-24T16:28:07.371Z,98636.30
2019-02-24T16:30:37.056Z,98639.10
2019-02-24T16:33:10.687Z,98640.45
2019-02-24T16:35:37.992Z,98639.13
2019-02-24T16:38:07.682Z,98645.16
2019-02-24T16:40:37.278Z,98637.48
2019-02-24T16:43:07.034Z,98636.95
2019-02-24T16:45:36.666Z,98634.49
2019-02-24T16:48:06.394Z,98634.31
2019-02-24T16:50:36.075Z,98631.58
2019-02-24T16:53:05.745Z,98633.36
2019-02-24T16:55:35.434Z,98641.36
2019-02-24T16:58:05.101Z,98653.63
2019-02-24T17:00:34.979Z,98648.11
2019-02-24T17:03:04.844Z,98648.28
2019-02-24T17:05:34.752Z,98650.98
2019-02-24T17:08:04.373Z,98655.99
2019-02-24T17:10:34.032Z,98662.46
2019-02-24T17:13:03.629Z,98658.42
2019-02-24T17:15:33.235Z,98660.70
2019-02-24T17:18:02.868Z,98662.18
2019-02-24T17:20:32.524Z,98647.95
2019-02-24T17:23:02.118Z,98651.94
2019-02-24T17:25:31.735Z,98647.27
2019-02-24T17:28:01.360Z,98635.80
2019-02-24T17:30:31.050Z,98646.22
2019-02-24T17:33:00.665Z,98657.17
2019-02-24T17:35:30.628Z,98663.44
2019-02-24T17:38:00.247Z,98681.63
2019-02-24T17:40:29.882Z,98681.46
2019-02-24T17:42:59.478Z,98682.29
2019-02-24T17:45:29.396Z,98684.72
2019-02-24T17:47:59.334Z,98680.32
2019-02-24T17:50:28.924Z,98685.26
2019-02-24T17:52:58.546Z,98682.59
2019-02-24T17:55:28.229Z,98693.82
2019-02-24T17:57:57.919Z,98702.33
2019-02-24T18:00:30.915Z,98697.72
2019-02-24T18:03:00.598Z,98706.31
2019-02-24T18:05:30.191Z,98697.26
2019-02-24T18:07:59.822Z,98695.81
2019-02-24T18:10:29.486Z,98710.08
2019-02-24T18:13:00.113Z,98717.64
2019-02-24T18:15:29.801Z,98726.13
2019-02-24T18:17:59.388Z,98728.13
2019-02-24T18:20:29.072Z,98726.03
2019-02-24T18:22:58.664Z,98723.97
2019-02-24T18:25:28.279Z,98725.08
2019-02-24T18:27:57.875Z,98731.98
2019-02-24T18:30:30.009Z,98722.80
2019-02-24T18:32:59.596Z,98720.84
2019-02-24T18:35:29.230Z,98720.35
2019-02-24T18:37:58.900Z,98722.73
2019-02-24T18:40:28.571Z,98733.11
2019-02-24T18:43:00.488Z,98728.50
2019-02-24T18:45:29.535Z,98728.13
2019-02-24T18:47:59.131Z,98728.69
2019-02-24T18:50:28.759Z,98730.09
2019-02-24T18:52:58.397Z,98728.41
2019-02-24T18:55:28.025Z,98730.56
2019-02-24T18:57:58.331Z,98717.82
2019-02-24T19:00:27.989Z,98716.88
2019-02-24T19:02:57.588Z,98718.95
2019-02-24T19:05:27.207Z,98718.28
2019-02-24T19:07:56.806Z,98710.85
2019-02-24T19:10:26.567Z,98703.67
2019-02-24T19:12:56.165Z,98701.58
2019-02-24T19:15:26.397Z,98704.41
2019-02-24T19:17:56.023Z,98704.03
2019-02-24T19:20:26.055Z,98702.60
2019-02-24T19:22:55.680Z,98698.55
2019-02-24T19:25:25.485Z,98709.88
2019-02-24T19:27:55.081Z,98701.20
2019-02-24T19:30:24.699Z,98698.74
2019-02-24T19:32:54.294Z,98690.83
2019-02-24T19:35:23.919Z,98690.14
2019-02-24T19:37:53.515Z,98695.25
2019-02-24T19:40:23.547Z,98695.05
2019-02-24T19:42:53.242Z,98696.34
2019-02-24T19:45:26.754Z,98704.46
2019-02-24T19:47:56.384Z,98696.72
2019-02-24T19:50:25.977Z,98697.58
2019-02-24T19:52:55.599Z,98697.37
2019-02-24T19:55:25.193Z,98693.64
2019-02-24T19:57:54.821Z,98689.87
2019-02-24T20:00:27.780Z,98694.44
2019-02-24T20:02:58.175Z,98693.20
2019-02-24T20:05:27.880Z,98686.38
2019-02-24T20:07:57.468Z,98682.42
2019-02-24T20:10:29.667Z,98671.88
2019-02-24T20:12:59.352Z,98668.91
2019-02-24T20:15:29.844Z,98662.31
2019-02-24T20:17:59.471Z,98657.73
2019-02-24T20:20:29.085Z,98664.52
2019-02-24T20:22:59.245Z,98661.31
2019-02-24T20:25:28.868Z,98659.89
2019-02-24T20:27:58.463Z,98658.09
2019-02-24T20:30:34.332Z,98655.82
2019-02-24T20:33:03.928Z,98652.98
2019-02-24T20:35:33.549Z,98659.23
2019-02-24T20:38:03.144Z,98659.13
2019-02-24T20:40:32.772Z,98652.53
2019-02-24T20:43:02.434Z,98648.84
2019-02-24T20:45:32.042Z,98645.08
2019-02-24T20:48:01.746Z,98636.30
2019-02-24T20:50:35.921Z,98635.34
2019-02-24T20:53:05.871Z,98625.92
2019-02-24T20:55:35.492Z,98620.25
2019-02-24T20:58:05.258Z,98625.34
2019-02-24T21:00:45.388Z,98620.54
2019-02-24T21:03:15.023Z,98617.05
2019-02-24T21:05:44.759Z,98618.01
2019-02-24T21:08:14.354Z,98612.33
2019-02-24T21:10:44.048Z,98614.59
2019-02-24T21:13:13.670Z,98616.20
2019-02-24T21:15:43.360Z,98618.17
2019-02-24T21:18:12.980Z,98609.13
2019-02-24T21:20:43.189Z,98606.00
2019-02-24T21:23:12.815Z,98608.84
2019-02-24T21:25:42.420Z,98612.86
2019-02-24T21:28:12.102Z,98616.83
2019-02-24T21:30:41.770Z,98618.38
2019-02-24T21:33:11.389Z,98614.59
2019-02-24T21:35:41.008Z,98605.35
2019-02-24T21:38:10.673Z,98617.90
2019-02-24T21:40:40.304Z,98624.41
2019-02-24T21:43:09.895Z,98618.18
2019-02-24T21:45:41.563Z,98616.30
2019-02-24T21:48:10.997Z,98613.09
2019-02-24T21:50:41.230Z,98616.48
2019-02-24T21:53:10.837Z,98621.09
2019-02-24T21:55:40.460Z,98625.72
2019-02-24T21:58:11.821Z,98624.02
2019-02-24T22:00:41.675Z,98632.52
2019-02-24T22:03:11.270Z,98633.73
2019-02-24T22:05:40.900Z,98633.73
2019-02-24T22:08:10.496Z,98632.33
2019-02-24T22:10:40.112Z,98626.29
2019-02-24T22:13:09.775Z,98632.33
2019-02-24T22:15:39.389Z,98642.61
2019-02-24T22:18:08.974Z,98645.52
2019-02-24T22:20:38.592Z,98640.20
2019-02-24T22:23:08.261Z,98641.98
2019-02-24T22:25:37.888Z,98637.94
2019-02-24T22:28:07.486Z,98634.66
2019-02-24T22:30:37.177Z,98627.61
2019-02-24T22:33:06.834Z,98627.31
2019-02-24T22:35:36.456Z,98626.02
2019-02-24T22:38:06.087Z,98630.59
2019-02-24T22:40:35.676Z,98628.22
2019-02-24T22:43:05.271Z,98616.48
2019-02-24T22:45:34.880Z,98614.39
2019-02-24T22:48:04.473Z,98614.03
2019-02-24T22:50:34.099Z,98623.66
2019-02-24T22:53:03.787Z,98623.29
2019-02-24T22:55:33.473Z,98621.49
2019-02-24T22:58:03.070Z,98611.02
2019-02-24T23:00:51.666Z,98612.13
2019-02-24T23:03:30.481Z,98611.02
2019-02-24T23:06:00.313Z,98609.03
2019-02-24T23:08:30.122Z,98600.34
2019-02-24T23:10:59.740Z,98597.98
2019-02-24T23:13:29.355Z,98599.88
2019-02-24T23:15:58.947Z,98600.72
2019-02-24T23:18:29.233Z,98605.56
2019-02-24T23:20:58.828Z,98599.42
2019-02-24T23:23:28.447Z,98593.83
2019-02-24T23:25:58.065Z,98597.23
2019-02-24T23:28:27.699Z,98603.27
2019-02-24T23:30:57.355Z,98597.59
2019-02-24T23:33:26.947Z,98593.48
2019-02-24T23:35:57.497Z,98588.63
2019-02-24T23:38:27.304Z,98586.88
2019-02-24T23:40:56.930Z,98591.30
2019-02-24T23:43:26.558Z,98590.82
2019-02-24T23:45:56.161Z,98582.87
2019-02-24T23:48:25.784Z,98578.44
2019-02-24T23:50:55.715Z,98583.52
2019-02-24T23:53:25.311Z,98580.69
2019-02-24T23:55:54.925Z,98574.33
2019-02-24T23:58:24.541Z,98579.55
